createdAt,value
2017-12-15T00:00:51.491Z,7.20
2017-12-15T00:03:17.880Z,9.10
2017-12-15T00:05:44.967Z,6.30
2017-12-15T00:08:11.536Z,8.30
2017-12-15T00:10:37.915Z,6.30
2017-12-15T00:13:04.833Z,6.20
2017-12-15T00:15:31.252Z,6.27
2017-12-15T00:17:57.612Z,7.33
2017-12-15T00:20:24.012Z,7.63
2017-12-15T00:22:50.344Z,9.97
2017-12-15T00:25:16.724Z,8.37
2017-12-15T00:27:43.088Z,9.53
2017-12-15T00:30:10.152Z,6.30
2017-12-15T00:32:36.522Z,10.07
2017-12-15T00:35:03.366Z,8.70
2017-12-15T00:37:29.740Z,12.90
2017-12-15T00:39:56.846Z,7.63
2017-12-15T00:42:23.203Z,14.13
2017-12-15T00:44:49.636Z,9.60
2017-12-15T00:47:15.996Z,11.33
2017-12-15T00:49:42.351Z,9.20
2017-12-15T00:52:10.207Z,8.67
2017-12-15T00:54:36.563Z,11.30
2017-12-15T00:57:03.242Z,8.60
2017-12-15T00:59:30.388Z,8.40
2017-12-15T01:01:57.543Z,10.27
2017-12-15T01:04:23.904Z,11.00
2017-12-15T01:06:50.299Z,11.43
2017-12-15T01:09:16.660Z,10.63
2017-12-15T01:11:43.044Z,10.63
2017-12-15T01:14:09.435Z,18.07
2017-12-15T01:16:35.809Z,14.37
2017-12-15T01:19:02.196Z,15.63
2017-12-15T01:21:29.271Z,12.07
2017-12-15T01:23:55.697Z,10.67
2017-12-15T01:26:22.075Z,10.33
2017-12-15T01:28:48.466Z,11.50
2017-12-15T01:31:14.841Z,7.80
2017-12-15T01:33:42.027Z,7.57
2017-12-15T01:36:09.902Z,7.77
2017-12-15T01:38:36.302Z,9.20
2017-12-15T01:41:03.919Z,9.20
2017-12-15T01:43:31.875Z,8.20
2017-12-15T01:45:58.935Z,5.97
2017-12-15T01:48:25.256Z,7.87
2017-12-15T01:50:52.343Z,9.30
2017-12-15T01:53:18.690Z,11.77
2017-12-15T01:55:45.090Z,8.20
2017-12-15T01:58:12.234Z,7.27
2017-12-15T02:00:39.375Z,8.90
2017-12-15T02:03:06.329Z,10.33
2017-12-15T02:05:33.491Z,10.00
2017-12-15T02:07:59.803Z,8.60
2017-12-15T02:10:26.140Z,8.37
2017-12-15T02:12:53.215Z,8.83
2017-12-15T02:15:19.572Z,5.73
2017-12-15T02:17:45.916Z,10.17
2017-12-15T02:20:12.247Z,7.47
2017-12-15T02:22:38.673Z,12.33
2017-12-15T02:25:05.659Z,11.20
2017-12-15T02:27:32.022Z,6.90
2017-12-15T02:29:58.334Z,5.83
2017-12-15T02:32:24.729Z,7.77
2017-12-15T02:34:51.165Z,6.47
2017-12-15T02:37:18.284Z,10.40
2017-12-15T02:39:44.602Z,13.60
2017-12-15T02:42:10.923Z,6.27
2017-12-15T02:44:37.334Z,6.23
2017-12-15T02:47:03.690Z,15.90
2017-12-15T02:49:31.536Z,11.20
2017-12-15T02:51:57.906Z,10.77
2017-12-15T02:54:24.328Z,8.67
2017-12-15T02:56:50.679Z,9.53
2017-12-15T02:59:17.016Z,13.93
2017-12-15T03:01:43.332Z,10.93
2017-12-15T03:04:10.236Z,11.70
2017-12-15T03:06:36.664Z,12.00
2017-12-15T03:09:03.519Z,16.47
2017-12-15T03:11:29.879Z,10.60
2017-12-15T03:13:56.227Z,13.53
2017-12-15T03:16:23.323Z,7.37
2017-12-15T03:18:49.690Z,17.03
2017-12-15T03:21:16.037Z,11.13
2017-12-15T03:23:42.447Z,12.00
2017-12-15T03:26:09.548Z,11.10
2017-12-15T03:28:35.914Z,12.63
2017-12-15T03:31:02.326Z,14.33
2017-12-15T03:33:28.689Z,12.53
2017-12-15T03:35:55.053Z,8.17
2017-12-15T03:38:22.139Z,14.47
2017-12-15T03:40:48.471Z,8.50
2017-12-15T03:43:15.546Z,10.50
2017-12-15T03:45:41.897Z,15.90
2017-12-15T03:48:08.687Z,10.00
2017-12-15T03:50:35.046Z,21.37
2017-12-15T03:53:01.432Z,14.30
2017-12-15T03:55:27.788Z,23.03
2017-12-15T03:57:54.139Z,19.80
2017-12-15T04:00:20.523Z,21.23
2017-12-15T04:02:46.894Z,12.27
2017-12-15T04:05:13.218Z,16.13
2017-12-15T04:07:39.555Z,12.07
2017-12-15T04:10:06.692Z,14.10
2017-12-15T04:12:33.877Z,10.83
2017-12-15T04:15:00.203Z,13.27
2017-12-15T04:17:26.551Z,10.27
2017-12-15T04:19:52.900Z,16.07
2017-12-15T04:22:19.228Z,14.93
2017-12-15T04:24:45.651Z,11.80
2017-12-15T04:27:12.061Z,9.17
2017-12-15T04:29:39.190Z,10.90
2017-12-15T04:32:06.008Z,13.00
2017-12-15T04:34:32.441Z,11.37
2017-12-15T04:36:58.801Z,14.40
2017-12-15T04:39:25.147Z,17.93
2017-12-15T04:41:53.038Z,12.00
2017-12-15T04:44:19.435Z,13.30
2017-12-15T04:46:45.820Z,11.23
2017-12-15T04:49:12.165Z,17.60
2017-12-15T04:51:38.520Z,11.90
2017-12-15T04:54:05.467Z,16.30
2017-12-15T04:56:32.649Z,13.93
2017-12-15T04:58:58.983Z,11.60
2017-12-15T05:01:25.359Z,15.13
2017-12-15T05:03:52.442Z,13.53
2017-12-15T05:06:18.851Z,13.83
2017-12-15T05:08:45.201Z,11.27
2017-12-15T05:11:12.339Z,17.03
2017-12-15T05:13:38.717Z,12.07
2017-12-15T05:16:06.037Z,8.83
2017-12-15T05:18:32.544Z,11.80
2017-12-15T05:20:58.963Z,10.10
2017-12-15T05:23:25.548Z,14.20
2017-12-15T05:25:58.859Z,23.97
2017-12-15T05:28:25.434Z,9.63
2017-12-15T05:30:52.216Z,22.00
2017-12-15T05:33:18.814Z,13.40
2017-12-15T05:35:45.185Z,9.43
2017-12-15T05:38:11.567Z,13.50
2017-12-15T05:40:37.960Z,11.53
2017-12-15T05:43:04.916Z,15.30
2017-12-15T05:45:31.574Z,13.47
2017-12-15T05:47:58.187Z,14.13
2017-12-15T05:50:25.594Z,12.63
2017-12-15T05:52:51.944Z,8.87
2017-12-15T05:55:18.316Z,12.40
2017-12-15T05:57:44.765Z,12.80
2017-12-15T06:00:11.167Z,7.00
2017-12-15T06:02:37.555Z,14.50
2017-12-15T06:05:04.457Z,14.17
2017-12-15T06:07:30.858Z,8.30
2017-12-15T06:09:57.235Z,21.10
2017-12-15T06:12:23.595Z,12.07
2017-12-15T06:14:49.945Z,6.57
2017-12-15T06:17:17.048Z,10.60
2017-12-15T06:19:44.127Z,11.03
2017-12-15T06:22:11.182Z,9.47
2017-12-15T06:24:37.576Z,7.17
2017-12-15T06:27:04.510Z,4.87
2017-12-15T06:29:32.450Z,7.33
2017-12-15T06:31:58.808Z,8.70
2017-12-15T06:34:25.171Z,9.40
2017-12-15T06:36:51.558Z,8.90
2017-12-15T06:39:18.710Z,5.03
2017-12-15T06:41:45.044Z,9.40
2017-12-15T06:44:12.176Z,18.00
2017-12-15T06:46:38.658Z,7.53
2017-12-15T06:49:04.976Z,11.77
2017-12-15T06:51:32.107Z,13.00
2017-12-15T06:54:00.852Z,8.90
2017-12-15T06:56:28.897Z,13.73
2017-12-15T06:58:55.303Z,16.97
2017-12-15T07:01:22.058Z,13.20
2017-12-15T07:03:49.264Z,11.80
2017-12-15T07:06:15.707Z,14.00
2017-12-15T07:08:42.173Z,7.90
2017-12-15T07:11:08.655Z,16.50
2017-12-15T07:13:35.845Z,7.00
2017-12-15T07:16:04.527Z,16.47
2017-12-15T07:18:31.258Z,12.93
2017-12-15T07:20:57.741Z,23.03
2017-12-15T07:23:25.459Z,9.80
2017-12-15T07:25:51.938Z,10.07
2017-12-15T07:28:18.452Z,11.23
2017-12-15T07:30:45.990Z,7.70
2017-12-15T07:33:12.498Z,6.13
2017-12-15T07:35:38.922Z,9.70
2017-12-15T07:38:07.701Z,19.73
2017-12-15T07:40:34.184Z,13.00
2017-12-15T07:43:00.763Z,11.20
2017-12-15T07:45:27.222Z,10.77
2017-12-15T07:47:53.720Z,17.20
2017-12-15T07:50:20.188Z,11.03
2017-12-15T07:52:46.612Z,16.37
2017-12-15T07:55:13.266Z,11.73
2017-12-15T07:57:39.721Z,10.80
2017-12-15T08:00:07.441Z,11.43
2017-12-15T08:02:34.011Z,19.10
2017-12-15T08:05:00.457Z,10.73
2017-12-15T08:07:27.373Z,9.70
2017-12-15T08:09:54.560Z,7.50
2017-12-15T08:12:23.100Z,16.40
2017-12-15T08:14:50.486Z,9.43
2017-12-15T08:17:17.912Z,9.17
2017-12-15T08:19:45.238Z,13.20
2017-12-15T08:22:14.687Z,9.80
2017-12-15T08:24:41.235Z,10.10
2017-12-15T08:27:09.256Z,9.03
2017-12-15T08:29:35.704Z,5.50
2017-12-15T08:32:02.578Z,9.10
2017-12-15T08:34:29.807Z,23.53
2017-12-15T08:36:57.012Z,13.43
2017-12-15T08:39:24.186Z,11.13
2017-12-15T08:41:50.670Z,11.40
2017-12-15T08:44:18.713Z,7.90
2017-12-15T08:46:52.176Z,8.83
2017-12-15T08:49:19.614Z,14.13
2017-12-15T08:51:46.145Z,10.43
2017-12-15T08:54:14.829Z,6.30
2017-12-15T08:56:41.368Z,12.63
2017-12-15T08:59:10.474Z,9.63
2017-12-15T09:01:36.958Z,10.43
2017-12-15T09:04:10.759Z,17.40
2017-12-15T09:06:47.233Z,11.60
2017-12-15T09:09:13.902Z,5.20
2017-12-15T09:11:44.003Z,11.93
2017-12-15T09:14:10.511Z,8.27
2017-12-15T09:16:37.714Z,9.50
2017-12-15T09:19:04.912Z,13.90
2017-12-15T09:21:31.511Z,12.87
2017-12-15T09:23:58.076Z,15.17
2017-12-15T09:26:24.598Z,8.10
2017-12-15T09:28:51.086Z,12.40
2017-12-15T09:31:17.513Z,13.97
2017-12-15T09:33:43.989Z,9.80
2017-12-15T09:36:10.512Z,8.80
2017-12-15T09:38:37.662Z,17.37
2017-12-15T09:41:05.002Z,7.33
2017-12-15T09:43:31.412Z,4.87
2017-12-15T09:45:58.582Z,9.63
2017-12-15T09:48:25.779Z,6.57
2017-12-15T09:50:52.328Z,8.00
2017-12-15T09:53:21.217Z,8.30
2017-12-15T09:55:48.125Z,9.37
2017-12-15T09:58:15.601Z,10.07
2017-12-15T10:00:45.085Z,7.13
2017-12-15T10:03:11.488Z,8.50
2017-12-15T10:05:41.514Z,9.10
2017-12-15T10:08:08.668Z,4.27
2017-12-15T10:10:35.191Z,11.43
2017-12-15T10:13:02.404Z,8.70
2017-12-15T10:15:28.879Z,8.73
2017-12-15T10:17:55.318Z,3.33
2017-12-15T10:20:23.287Z,6.13
2017-12-15T10:22:51.886Z,4.57
2017-12-15T10:25:18.829Z,6.83
2017-12-15T10:27:46.758Z,7.73
2017-12-15T10:30:15.298Z,9.40
2017-12-15T10:32:41.934Z,4.70
2017-12-15T10:35:08.375Z,5.20
2017-12-15T10:37:35.387Z,6.20
2017-12-15T10:40:02.243Z,10.70
2017-12-15T10:42:30.455Z,5.03
2017-12-15T10:44:57.843Z,4.13
2017-12-15T10:47:24.998Z,6.63
2017-12-15T10:49:53.346Z,7.63
2017-12-15T10:52:35.628Z,7.30
2017-12-15T10:55:02.923Z,5.30
2017-12-15T10:57:29.360Z,10.30
2017-12-15T10:59:56.513Z,5.37
2017-12-15T11:02:22.975Z,8.10
2017-12-15T11:04:50.907Z,11.53
2017-12-15T11:07:17.827Z,9.97
2017-12-15T11:09:44.401Z,4.53
2017-12-15T11:12:11.547Z,9.30
2017-12-15T11:14:37.928Z,10.20
2017-12-15T11:17:04.343Z,3.73
2017-12-15T11:19:30.854Z,11.73
2017-12-15T11:21:58.059Z,16.93
2017-12-15T11:24:24.571Z,14.93
2017-12-15T11:26:50.985Z,8.33
2017-12-15T11:29:17.411Z,7.03
2017-12-15T11:31:43.805Z,8.17
2017-12-15T11:34:10.228Z,17.20
2017-12-15T11:36:36.917Z,9.40
2017-12-15T11:39:04.678Z,10.27
2017-12-15T11:41:31.175Z,8.37
2017-12-15T11:43:57.719Z,10.37
2017-12-15T11:46:24.312Z,5.93
2017-12-15T11:48:50.744Z,11.40
2017-12-15T11:51:17.473Z,12.43
2017-12-15T11:53:43.895Z,8.17
2017-12-15T11:56:10.328Z,6.43
2017-12-15T11:58:36.719Z,6.67
2017-12-15T12:01:03.319Z,7.13
2017-12-15T12:03:29.705Z,7.80
2017-12-15T12:05:56.889Z,8.50
2017-12-15T12:08:23.327Z,10.50
2017-12-15T12:10:49.772Z,8.00
2017-12-15T12:13:16.919Z,6.00
2017-12-15T12:15:43.413Z,12.60
2017-12-15T12:18:10.604Z,3.47
2017-12-15T12:20:37.075Z,3.90
2017-12-15T12:23:03.630Z,14.10
2017-12-15T12:25:30.082Z,10.10
2017-12-15T12:27:57.856Z,8.17
2017-12-15T12:30:24.248Z,7.93
2017-12-15T12:32:50.673Z,6.17
2017-12-15T12:35:17.063Z,3.40
2017-12-15T12:37:44.277Z,6.67
2017-12-15T12:40:10.731Z,16.67
2017-12-15T12:42:37.155Z,8.33
2017-12-15T12:45:03.708Z,5.50
2017-12-15T12:47:30.157Z,6.23
2017-12-15T12:49:56.624Z,8.23
2017-12-15T12:52:23.122Z,3.70
2017-12-15T12:54:49.572Z,5.90
2017-12-15T12:57:16.017Z,4.83
2017-12-15T12:59:42.475Z,7.07
2017-12-15T13:02:09.597Z,2.77
2017-12-15T13:04:36.338Z,8.87
2017-12-15T13:07:03.887Z,6.00
2017-12-15T13:09:30.632Z,3.40
2017-12-15T13:11:58.016Z,4.23
2017-12-15T13:14:24.446Z,6.70
2017-12-15T13:16:50.896Z,2.17
2017-12-15T13:19:17.340Z,3.80
2017-12-15T13:21:44.553Z,3.57
2017-12-15T13:24:11.108Z,4.07
2017-12-15T13:26:37.726Z,5.57
2017-12-15T13:29:07.810Z,5.50
2017-12-15T13:31:34.916Z,8.30
2017-12-15T13:34:01.372Z,3.27
2017-12-15T13:36:27.763Z,4.70
2017-12-15T13:38:54.231Z,3.27
2017-12-15T13:41:20.618Z,5.77
2017-12-15T13:43:47.112Z,10.27
2017-12-15T13:46:13.613Z,4.87
2017-12-15T13:48:40.119Z,6.60
2017-12-15T13:51:06.564Z,5.77
2017-12-15T13:53:33.119Z,4.13
2017-12-15T13:55:59.589Z,3.90
2017-12-15T13:58:26.819Z,4.23
2017-12-15T14:00:53.953Z,4.93
2017-12-15T14:03:20.388Z,4.40
2017-12-15T14:05:47.221Z,4.00
2017-12-15T14:08:13.762Z,3.57
2017-12-15T14:10:40.958Z,3.80
2017-12-15T14:13:07.382Z,4.77
2017-12-15T14:15:33.926Z,5.63
2017-12-15T14:18:00.356Z,5.30
2017-12-15T14:20:26.807Z,3.53
2017-12-15T14:22:53.247Z,4.60
2017-12-15T14:25:19.674Z,7.50
2017-12-15T14:27:46.812Z,9.77
2017-12-15T14:30:16.437Z,5.20
2017-12-15T14:32:43.588Z,5.47
2017-12-15T14:35:11.377Z,4.47
2017-12-15T14:37:39.246Z,4.43
2017-12-15T14:40:06.438Z,3.77
2017-12-15T14:42:35.270Z,3.83
2017-12-15T14:45:02.668Z,3.03
2017-12-15T14:47:30.244Z,3.27
2017-12-15T14:49:57.236Z,5.20
2017-12-15T14:52:24.828Z,4.83
2017-12-15T14:54:54.931Z,3.60
2017-12-15T14:57:22.314Z,6.13
2017-12-15T14:59:50.672Z,5.67
2017-12-15T15:02:18.081Z,8.60
2017-12-15T15:04:44.543Z,4.87
2017-12-15T15:07:12.118Z,6.90
2017-12-15T15:09:39.096Z,8.13
2017-12-15T15:12:08.313Z,25.03
2017-12-15T15:14:35.128Z,28.77
2017-12-15T15:17:01.558Z,37.73
2017-12-15T15:19:28.515Z,38.33
2017-12-15T15:21:56.642Z,42.37
2017-12-15T15:24:24.597Z,4.67
2017-12-15T15:26:51.772Z,44.90
2017-12-15T15:29:19.705Z,13.60
2017-12-15T15:31:47.036Z,8.40
2017-12-15T15:34:14.364Z,7.13
2017-12-15T15:36:41.446Z,8.37
2017-12-15T15:39:08.058Z,12.57
2017-12-15T15:41:35.161Z,17.00
2017-12-15T15:44:04.019Z,11.57
2017-12-15T15:46:30.934Z,11.13
2017-12-15T15:48:58.679Z,9.10
2017-12-15T15:51:27.018Z,7.23
2017-12-15T15:53:54.292Z,9.13
2017-12-15T15:56:21.977Z,13.83
2017-12-15T15:58:48.549Z,17.07
2017-12-15T16:01:14.945Z,14.37
2017-12-15T16:03:42.099Z,11.70
2017-12-15T16:06:09.266Z,10.13
2017-12-15T16:08:35.681Z,10.87
2017-12-15T16:11:02.244Z,10.40
2017-12-15T16:13:28.661Z,10.10
2017-12-15T16:15:55.071Z,10.50
2017-12-15T16:18:22.221Z,11.87
2017-12-15T16:20:49.346Z,10.13
2017-12-15T16:23:15.822Z,8.73
2017-12-15T16:25:42.960Z,8.37
2017-12-15T16:28:09.347Z,10.63
2017-12-15T16:30:35.798Z,12.93
2017-12-15T16:33:02.208Z,8.90
2017-12-15T16:35:28.640Z,12.13
2017-12-15T16:37:55.010Z,12.97
2017-12-15T16:40:22.880Z,15.00
2017-12-15T16:42:50.028Z,10.50
2017-12-15T16:45:16.485Z,9.70
2017-12-15T16:47:42.867Z,9.90
2017-12-15T16:50:09.768Z,14.17
2017-12-15T16:52:36.199Z,8.70
2017-12-15T16:55:02.774Z,13.73
2017-12-15T16:57:29.162Z,9.40
2017-12-15T16:59:55.575Z,9.70
2017-12-15T17:02:21.939Z,8.40
2017-12-15T17:04:48.359Z,10.50
2017-12-15T17:07:15.495Z,13.50
2017-12-15T17:09:41.941Z,12.57
2017-12-15T17:12:09.001Z,8.50
2017-12-15T17:14:36.184Z,17.60
2017-12-15T17:17:02.814Z,15.40
2017-12-15T17:19:29.210Z,16.33
2017-12-15T17:21:56.324Z,20.47
2017-12-15T17:24:23.505Z,23.37
2017-12-15T17:26:50.455Z,27.30
2017-12-15T17:29:18.301Z,31.23
2017-12-15T17:31:44.719Z,37.63
2017-12-15T17:34:11.828Z,27.73
2017-12-15T17:36:38.243Z,24.13
2017-12-15T17:39:05.326Z,23.67
2017-12-15T17:41:32.478Z,20.50
2017-12-15T17:43:58.902Z,19.43
2017-12-15T17:46:25.279Z,33.33
2017-12-15T17:48:51.669Z,17.10
2017-12-15T17:51:18.107Z,18.00
2017-12-15T17:53:44.515Z,18.47
2017-12-15T17:56:11.659Z,10.83
2017-12-15T17:58:38.071Z,14.63
2017-12-15T18:01:05.584Z,10.93
2017-12-15T18:03:32.089Z,16.90
2017-12-15T18:05:59.179Z,21.43
2017-12-15T18:08:25.556Z,21.23
2017-12-15T18:10:52.018Z,17.27
2017-12-15T18:13:19.111Z,24.23
2017-12-15T18:15:45.522Z,19.87
2017-12-15T18:18:12.620Z,19.67
2017-12-15T18:20:39.006Z,19.93
2017-12-15T18:23:06.050Z,22.70
2017-12-15T18:25:32.478Z,13.67
2017-12-15T18:27:59.060Z,12.97
2017-12-15T18:30:25.421Z,12.80
2017-12-15T18:32:52.751Z,14.73
2017-12-15T18:35:19.148Z,11.60
2017-12-15T18:37:45.527Z,11.30
2017-12-15T18:40:11.877Z,14.63
2017-12-15T18:42:38.836Z,15.87
2017-12-15T18:45:05.227Z,12.97
2017-12-15T18:47:32.344Z,12.90
2017-12-15T18:49:58.697Z,14.50
2017-12-15T18:52:25.098Z,16.50
2017-12-15T18:54:51.508Z,17.50
2017-12-15T18:57:18.639Z,22.70
2017-12-15T18:59:45.022Z,17.23
2017-12-15T19:02:11.454Z,12.97
2017-12-15T19:04:38.562Z,14.30
2017-12-15T19:07:05.743Z,15.43
2017-12-15T19:09:33.610Z,12.33
2017-12-15T19:12:00.014Z,12.63
2017-12-15T19:14:26.395Z,14.60
2017-12-15T19:16:52.763Z,17.87
2017-12-15T19:19:19.143Z,14.60
2017-12-15T19:21:45.486Z,14.00
2017-12-15T19:24:12.640Z,15.37
2017-12-15T19:26:39.014Z,9.90
2017-12-15T19:29:05.428Z,10.50
2017-12-15T19:31:32.573Z,12.40
2017-12-15T19:33:58.994Z,11.40
2017-12-15T19:36:26.175Z,13.00
2017-12-15T19:38:52.554Z,13.53
2017-12-15T19:41:18.959Z,14.47
2017-12-15T19:43:45.380Z,12.83
2017-12-15T19:46:11.819Z,14.03
2017-12-15T19:48:39.758Z,8.93
2017-12-15T19:51:07.278Z,11.57
2017-12-15T19:53:33.674Z,9.90
2017-12-15T19:56:00.883Z,12.00
2017-12-15T19:58:27.251Z,9.50
2017-12-15T20:00:53.656Z,9.87
2017-12-15T20:03:20.118Z,12.57
2017-12-15T20:05:46.565Z,18.30
2017-12-15T20:08:13.041Z,10.27
2017-12-15T20:10:40.181Z,17.10
2017-12-15T20:13:07.007Z,14.47
2017-12-15T20:15:33.386Z,12.17
2017-12-15T20:17:59.991Z,15.80
2017-12-15T20:20:26.552Z,12.73
2017-12-15T20:22:52.931Z,15.07
2017-12-15T20:25:19.356Z,14.70
2017-12-15T20:27:45.804Z,13.73
2017-12-15T20:30:12.261Z,17.80
2017-12-15T20:32:39.445Z,18.30
2017-12-15T20:35:06.478Z,15.77
2017-12-15T20:37:32.864Z,14.47
2017-12-15T20:39:59.234Z,12.47
2017-12-15T20:42:25.599Z,14.80
2017-12-15T20:44:51.990Z,15.80
2017-12-15T20:47:19.113Z,22.53
2017-12-15T20:49:45.614Z,22.90
2017-12-15T20:52:12.057Z,13.97
2017-12-15T20:54:39.206Z,16.63
2017-12-15T20:57:06.693Z,13.50
2017-12-15T20:59:33.823Z,21.17
2017-12-15T21:02:00.252Z,10.00
2017-12-15T21:04:26.810Z,16.13
2017-12-15T21:06:53.234Z,20.27
2017-12-15T21:09:19.689Z,22.57
2017-12-15T21:11:46.866Z,18.07
2017-12-15T21:14:14.052Z,18.90
2017-12-15T21:16:40.380Z,24.83
2017-12-15T21:19:07.307Z,13.97
2017-12-15T21:21:33.787Z,22.37
2017-12-15T21:24:00.264Z,15.03
2017-12-15T21:26:26.672Z,11.60
2017-12-15T21:28:53.893Z,13.60
2017-12-15T21:31:20.291Z,13.40
2017-12-15T21:33:46.719Z,11.30
2017-12-15T21:36:13.124Z,16.30
2017-12-15T21:38:40.342Z,32.90
2017-12-15T21:41:07.711Z,34.73
2017-12-15T21:43:34.104Z,71.57
2017-12-15T21:46:00.503Z,56.53
2017-12-15T21:48:26.891Z,38.73
2017-12-15T21:50:53.379Z,36.50
2017-12-15T21:53:19.728Z,34.93
2017-12-15T21:55:46.947Z,33.97
2017-12-15T21:58:13.341Z,33.70
2017-12-15T22:00:39.799Z,36.80
2017-12-15T22:03:06.223Z,32.57
2017-12-15T22:05:32.699Z,24.77
2017-12-15T22:07:59.103Z,24.17
2017-12-15T22:10:26.211Z,25.43
2017-12-15T22:12:52.735Z,31.73
2017-12-15T22:15:19.205Z,25.17
2017-12-15T22:17:45.699Z,27.30
2017-12-15T22:20:12.195Z,22.50
2017-12-15T22:22:38.611Z,34.80
2017-12-15T22:25:06.035Z,25.60
2017-12-15T22:27:33.473Z,37.57
2017-12-15T22:29:59.935Z,40.60
2017-12-15T22:32:27.945Z,30.10
2017-12-15T22:34:54.377Z,49.73
2017-12-15T22:37:20.772Z,39.73
2017-12-15T22:39:47.137Z,46.13
2017-12-15T22:42:13.534Z,34.63
2017-12-15T22:44:40.048Z,38.63
2017-12-15T22:47:07.945Z,38.70
2017-12-15T22:49:34.324Z,44.47
2017-12-15T22:52:00.807Z,42.07
2017-12-15T22:54:27.263Z,39.87
2017-12-15T22:56:53.673Z,31.50
2017-12-15T22:59:20.132Z,38.03
2017-12-15T23:01:47.271Z,50.60
2017-12-15T23:04:13.703Z,41.70
2017-12-15T23:06:40.130Z,36.47
2017-12-15T23:09:07.052Z,38.97
2017-12-15T23:11:34.216Z,35.17
2017-12-15T23:14:00.606Z,39.47
2017-12-15T23:16:27.045Z,39.10
2017-12-15T23:18:54.227Z,40.90
2017-12-15T23:21:20.563Z,48.00
2017-12-15T23:23:46.965Z,48.90
2017-12-15T23:26:13.363Z,47.00
2017-12-15T23:28:39.781Z,48.93
2017-12-15T23:31:07.087Z,41.47
2017-12-15T23:33:33.423Z,36.33
2017-12-15T23:35:59.854Z,40.20
2017-12-15T23:38:26.301Z,35.67
2017-12-15T23:40:52.740Z,33.13
2017-12-15T23:43:19.862Z,34.03
2017-12-15T23:45:46.246Z,29.43
2017-12-15T23:48:12.616Z,29.80
2017-12-15T23:50:39.080Z,29.60
2017-12-15T23:53:06.138Z,44.27
2017-12-15T23:55:44.732Z,69.90
2017-12-15T23:58:11.172Z,93.03
